Ruthton, Minnesota
Current Conditions -  °F | °C
As of 4:34 AM on Thursday 18 Dec 2014 (Local Time) from KPQN Reporting Station
Overcast Overcast  
Wind Chill: 14°   Ceiling: 7000
Heat Index: 14°   Visibility: 10mi
Dew Point: 10°   Wind: 0mph
Humidity: 86%   Direction: NA
Pressure: 30.19"   Gusts: NA
Location:  44.18°N, 96.1°W
Report Text: KPQN 181034Z AUTO 00000KT 10SM OVC070 M10/M12 A3019 RMK AO2
Loading
Personal Weather Stations






























Interactive Weather Map New forecast layout! Learn more

10-Day Weather Forecast

Advertisements
Track Severe Weather on mobile